createdAt,value
2023-01-10T00:00:51.148Z,8.23
2023-01-10T00:03:18.785Z,8.23
2023-01-10T00:05:45.817Z,8.24
2023-01-10T00:08:16.874Z,8.19
2023-01-10T00:10:43.734Z,8.19
2023-01-10T00:13:24.818Z,8.19
2023-01-10T00:15:54.659Z,8.17
2023-01-10T00:18:22.438Z,8.17
2023-01-10T00:20:49.802Z,8.18
2023-01-10T00:23:18.408Z,8.18
2023-01-10T00:25:45.349Z,8.16
2023-01-10T00:28:21.016Z,8.14
2023-01-10T00:31:06.482Z,8.12
2023-01-10T00:33:35.316Z,8.14
2023-01-10T00:36:04.678Z,8.12
2023-01-10T00:38:35.589Z,8.07
2023-01-10T00:41:03.864Z,7.97
2023-01-10T00:43:48.987Z,7.91
2023-01-10T00:46:19.108Z,7.86
2023-01-10T00:48:45.947Z,7.76
2023-01-10T00:51:12.763Z,7.77
2023-01-10T00:53:39.608Z,7.79
2023-01-10T00:56:06.894Z,7.74
2023-01-10T00:58:33.989Z,7.73
2023-01-10T01:01:01.080Z,7.71
2023-01-10T01:03:27.972Z,7.65
2023-01-10T01:05:54.821Z,7.63
2023-01-10T01:08:21.635Z,7.60
2023-01-10T01:10:48.732Z,7.54
2023-01-10T01:13:19.682Z,7.53
2023-01-10T01:15:47.249Z,7.53
2023-01-10T01:18:21.514Z,7.50
2023-01-10T01:20:53.165Z,7.50
2023-01-10T01:23:20.524Z,7.46
2023-01-10T01:25:51.763Z,7.45
2023-01-10T01:28:19.028Z,7.43
2023-01-10T01:30:46.060Z,7.40
2023-01-10T01:33:13.426Z,7.38
2023-01-10T01:35:45.230Z,7.32
2023-01-10T01:38:13.141Z,7.33
2023-01-10T01:40:41.630Z,7.39
2023-01-10T01:43:29.533Z,7.43
2023-01-10T01:46:01.408Z,7.40
2023-01-10T01:48:39.975Z,7.32
2023-01-10T01:51:19.076Z,7.31
2023-01-10T01:53:55.072Z,7.29
2023-01-10T01:56:48.820Z,7.28
2023-01-10T01:59:36.945Z,7.34
2023-01-10T02:02:18.366Z,7.37
2023-01-10T02:04:55.953Z,7.41
2023-01-10T02:07:25.341Z,7.43
2023-01-10T02:10:05.559Z,7.48
2023-01-10T02:12:33.309Z,7.49
2023-01-10T02:15:00.516Z,7.49
2023-01-10T02:17:27.309Z,7.52
2023-01-10T02:20:06.831Z,7.48
2023-01-10T02:23:10.549Z,7.44
2023-01-10T02:26:38.323Z,7.47
2023-01-10T02:29:42.013Z,7.44
2023-01-10T02:32:14.788Z,7.45
2023-01-10T02:35:25.770Z,7.46
2023-01-10T02:38:47.485Z,7.45
2023-01-10T02:41:30.111Z,7.44
2023-01-10T02:44:25.735Z,7.44
2023-01-10T02:46:52.620Z,7.45
2023-01-10T02:49:19.654Z,7.47
2023-01-10T02:51:46.623Z,7.44
2023-01-10T02:54:20.528Z,7.40
2023-01-10T02:56:48.304Z,7.42
2023-01-10T03:00:08.173Z,7.40
2023-01-10T03:03:17.512Z,7.39
2023-01-10T03:06:40.996Z,7.39
2023-01-10T03:09:26.232Z,7.37
2023-01-10T03:12:14.028Z,7.32
2023-01-10T03:14:42.377Z,7.27
2023-01-10T03:17:12.014Z,7.25
2023-01-10T03:19:47.190Z,7.23
2023-01-10T03:22:14.995Z,7.21
2023-01-10T03:24:49.795Z,7.21
2023-01-10T03:28:06.623Z,7.20
2023-01-10T03:31:00.809Z,7.18
2023-01-10T03:33:31.734Z,7.22
2023-01-10T03:36:23.109Z,7.28
2023-01-10T03:38:57.666Z,7.32
2023-01-10T03:41:54.900Z,7.35
2023-01-10T03:44:44.125Z,7.36
2023-01-10T03:47:39.147Z,7.37
2023-01-10T03:50:22.744Z,7.37
2023-01-10T03:52:49.752Z,7.36
2023-01-10T03:55:23.135Z,7.35
2023-01-10T03:57:50.023Z,7.30
2023-01-10T04:00:17.792Z,7.28
2023-01-10T04:02:44.860Z,7.25
2023-01-10T04:05:12.412Z,7.23
2023-01-10T04:07:39.439Z,7.22
2023-01-10T04:10:07.829Z,7.24
2023-01-10T04:12:34.765Z,7.22
2023-01-10T04:15:02.752Z,7.24
2023-01-10T04:17:29.632Z,7.19
2023-01-10T04:19:56.597Z,7.18
2023-01-10T04:22:23.426Z,7.19
2023-01-10T04:24:51.949Z,7.17
2023-01-10T04:27:20.323Z,7.20
2023-01-10T04:29:47.446Z,7.20
2023-01-10T04:32:14.313Z,7.22
2023-01-10T04:34:41.156Z,7.22
2023-01-10T04:37:08.025Z,7.21
2023-01-10T04:39:34.892Z,7.21
2023-01-10T04:42:01.724Z,7.19
2023-01-10T04:44:28.552Z,7.20
2023-01-10T04:46:55.423Z,7.16
2023-01-10T04:49:22.342Z,7.10
2023-01-10T04:51:49.180Z,7.09
2023-01-10T04:54:21.246Z,7.11
2023-01-10T04:56:48.266Z,7.11
2023-01-10T04:59:15.628Z,7.08
2023-01-10T05:01:42.589Z,7.10
2023-01-10T05:04:10.198Z,7.10
2023-01-10T05:06:39.923Z,7.07
2023-01-10T05:09:08.847Z,7.03
2023-01-10T05:11:35.815Z,7.03
2023-01-10T05:14:02.970Z,7.05
2023-01-10T05:16:29.913Z,7.07
2023-01-10T05:18:56.801Z,7.12
2023-01-10T05:21:24.288Z,7.14
2023-01-10T05:23:51.177Z,7.20
2023-01-10T05:26:23.772Z,7.26
2023-01-10T05:28:50.769Z,7.26
2023-01-10T05:31:19.962Z,7.25
2023-01-10T05:33:51.578Z,7.26
2023-01-10T05:36:19.262Z,7.30
2023-01-10T05:38:46.472Z,7.35
2023-01-10T05:41:13.478Z,7.36
2023-01-10T05:43:40.323Z,7.31
2023-01-10T05:46:07.231Z,7.31
2023-01-10T05:48:34.112Z,7.35
2023-01-10T05:51:01.277Z,7.35
2023-01-10T05:53:28.124Z,7.38
2023-01-10T05:56:01.259Z,7.38
2023-01-10T05:58:29.556Z,7.41
2023-01-10T06:00:57.839Z,7.44
2023-01-10T06:03:26.579Z,7.44
2023-01-10T06:05:57.205Z,7.45
2023-01-10T06:08:25.621Z,7.46
2023-01-10T06:10:52.769Z,7.49
2023-01-10T06:13:19.722Z,7.51
2023-01-10T06:15:46.647Z,7.51
2023-01-10T06:18:14.257Z,7.52
2023-01-10T06:20:44.181Z,7.50
2023-01-10T06:23:11.031Z,7.50
2023-01-10T06:25:40.730Z,7.53
2023-01-10T06:28:09.741Z,7.54
2023-01-10T06:30:36.650Z,7.53
2023-01-10T06:33:08.671Z,7.48
2023-01-10T06:35:36.326Z,7.43
2023-01-10T06:38:03.997Z,7.38
2023-01-10T06:40:30.830Z,7.35
2023-01-10T06:42:58.419Z,7.32
2023-01-10T06:45:25.439Z,7.32
2023-01-10T06:47:52.297Z,7.35
2023-01-10T06:50:19.323Z,7.35
2023-01-10T06:52:46.198Z,7.39
2023-01-10T06:55:13.083Z,7.39
2023-01-10T06:57:39.985Z,7.42
2023-01-10T07:00:10.459Z,7.43
2023-01-10T07:02:37.673Z,7.46
2023-01-10T07:05:04.775Z,7.41
2023-01-10T07:07:31.572Z,7.43
2023-01-10T07:09:59.723Z,7.40
2023-01-10T07:12:26.665Z,7.43
2023-01-10T07:14:53.558Z,7.39
2023-01-10T07:17:20.557Z,7.40
2023-01-10T07:19:47.370Z,7.43
2023-01-10T07:22:14.360Z,7.46
2023-01-10T07:24:41.265Z,7.43
2023-01-10T07:27:08.205Z,7.44
2023-01-10T07:29:35.019Z,7.47
2023-01-10T07:32:01.835Z,7.51
2023-01-10T07:34:28.703Z,7.52
2023-01-10T07:36:55.563Z,7.55
2023-01-10T07:39:22.384Z,7.53
2023-01-10T07:41:50.406Z,7.52
2023-01-10T07:44:17.339Z,7.52
2023-01-10T07:46:44.230Z,7.55
2023-01-10T07:49:11.144Z,7.56
2023-01-10T07:51:38.112Z,7.56
2023-01-10T07:54:05.057Z,7.55
2023-01-10T07:56:32.674Z,7.55
2023-01-10T07:59:01.172Z,7.54
2023-01-10T08:01:29.546Z,7.56
2023-01-10T08:03:58.361Z,7.60
2023-01-10T08:06:25.564Z,7.59
2023-01-10T08:08:52.408Z,7.60
2023-01-10T08:11:19.400Z,7.64
2023-01-10T08:13:46.329Z,7.68
2023-01-10T08:16:15.153Z,7.69
2023-01-10T08:18:43.174Z,7.69
2023-01-10T08:21:10.636Z,7.70
2023-01-10T08:23:37.794Z,7.70
2023-01-10T08:26:05.836Z,7.65
2023-01-10T08:28:32.909Z,7.66
2023-01-10T08:31:05.240Z,7.72
2023-01-10T08:33:32.123Z,7.73
2023-01-10T08:35:59.030Z,7.75
2023-01-10T08:38:25.901Z,7.75
2023-01-10T08:40:52.724Z,7.73
2023-01-10T08:43:19.565Z,7.67
2023-01-10T08:45:47.171Z,7.64
2023-01-10T08:48:14.131Z,7.67
2023-01-10T08:50:40.916Z,7.67
2023-01-10T08:53:07.827Z,7.72
2023-01-10T08:55:35.413Z,7.79
2023-01-10T08:58:02.979Z,7.78
2023-01-10T09:00:30.457Z,7.71
2023-01-10T09:02:57.792Z,7.67
2023-01-10T09:05:28.107Z,7.66
2023-01-10T09:08:01.376Z,7.62
2023-01-10T09:10:30.103Z,7.55
2023-01-10T09:13:05.859Z,7.53
2023-01-10T09:15:35.985Z,7.54
2023-01-10T09:18:06.444Z,7.52
2023-01-10T09:20:37.034Z,7.54
2023-01-10T09:23:17.533Z,7.53
2023-01-10T09:25:48.738Z,7.49
2023-01-10T09:28:16.107Z,7.49
2023-01-10T09:30:43.341Z,7.56
2023-01-10T09:33:11.080Z,7.63
2023-01-10T09:35:40.541Z,7.69
2023-01-10T09:38:14.678Z,7.73
2023-01-10T09:40:59.535Z,7.75
2023-01-10T09:44:02.759Z,7.73
2023-01-10T09:46:47.668Z,7.78
2023-01-10T09:49:42.106Z,7.83
2023-01-10T09:52:25.856Z,7.87
2023-01-10T09:54:56.644Z,7.90
2023-01-10T09:57:24.587Z,7.94
2023-01-10T09:59:54.017Z,8.00
2023-01-10T10:02:20.775Z,7.98
2023-01-10T10:05:24.974Z,8.03
2023-01-10T10:07:56.760Z,8.08
2023-01-10T10:10:51.379Z,8.12
2023-01-10T10:14:09.229Z,8.10
2023-01-10T10:17:21.031Z,8.14
2023-01-10T10:20:43.397Z,8.11
2023-01-10T10:23:48.942Z,8.12
2023-01-10T10:26:29.919Z,8.13
2023-01-10T10:29:16.912Z,8.17
2023-01-10T10:32:43.477Z,8.20
2023-01-10T10:35:38.425Z,8.26
2023-01-10T10:38:18.569Z,8.36
2023-01-10T10:40:48.993Z,8.46
2023-01-10T10:43:25.478Z,8.57
2023-01-10T10:45:58.776Z,8.80
2023-01-10T10:48:34.613Z,8.99
2023-01-10T10:51:39.892Z,9.05
2023-01-10T10:54:11.285Z,9.05
2023-01-10T10:56:38.288Z,9.03
2023-01-10T10:59:05.555Z,8.98
2023-01-10T11:01:32.851Z,9.03
2023-01-10T11:04:06.125Z,8.98
2023-01-10T11:06:36.077Z,8.96
2023-01-10T11:09:05.395Z,8.91
2023-01-10T11:11:44.715Z,8.88
2023-01-10T11:14:13.352Z,8.80
2023-01-10T11:16:45.006Z,8.75
2023-01-10T11:19:26.515Z,8.80
2023-01-10T11:22:01.053Z,8.90
2023-01-10T11:24:33.750Z,9.10
2023-01-10T11:27:14.426Z,9.30
2023-01-10T11:30:03.508Z,9.50
2023-01-10T11:32:48.127Z,9.65
2023-01-10T11:35:41.823Z,9.76
2023-01-10T11:38:21.920Z,9.87
2023-01-10T11:41:15.168Z,9.93
2023-01-10T11:43:41.984Z,9.98
2023-01-10T11:46:21.642Z,9.90
2023-01-10T11:49:06.225Z,9.79
2023-01-10T11:51:45.279Z,9.63
2023-01-10T11:54:17.968Z,9.54
2023-01-10T11:56:57.295Z,9.48
2023-01-10T11:59:25.339Z,9.38
2023-01-10T12:02:22.760Z,9.29
2023-01-10T12:04:51.579Z,9.22
2023-01-10T12:07:22.501Z,9.19
2023-01-10T12:10:01.525Z,9.23
2023-01-10T12:12:30.778Z,9.29
2023-01-10T12:15:00.542Z,9.43
2023-01-10T12:17:29.551Z,9.51
2023-01-10T12:20:00.657Z,9.55
2023-01-10T12:22:36.847Z,9.51
2023-01-10T12:25:18.141Z,9.51
2023-01-10T12:27:49.000Z,9.52
2023-01-10T12:30:38.898Z,9.43
2023-01-10T12:33:20.466Z,9.39
2023-01-10T12:36:29.734Z,9.41
2023-01-10T12:39:19.433Z,9.50
2023-01-10T12:42:27.448Z,9.50
2023-01-10T12:45:27.126Z,9.50
2023-01-10T12:48:04.312Z,9.48
2023-01-10T12:50:42.157Z,9.46
2023-01-10T12:53:36.252Z,9.49
2023-01-10T12:56:07.845Z,9.42
2023-01-10T12:58:44.979Z,9.43
2023-01-10T13:01:23.395Z,9.38
2023-01-10T13:04:03.347Z,9.37
2023-01-10T13:06:40.156Z,9.40
2023-01-10T13:09:23.173Z,9.38
2023-01-10T13:12:34.205Z,9.34
2023-01-10T13:15:39.295Z,9.24
2023-01-10T13:18:34.849Z,9.20
2023-01-10T13:21:14.652Z,9.13
2023-01-10T13:23:49.684Z,9.07
2023-01-10T13:26:17.186Z,9.06
2023-01-10T13:28:57.952Z,9.01
2023-01-10T13:31:31.868Z,9.04
2023-01-10T13:34:07.493Z,9.08
2023-01-10T13:37:27.691Z,9.06
2023-01-10T13:40:00.399Z,9.03
2023-01-10T13:42:51.090Z,9.08
2023-01-10T13:45:29.437Z,9.02
2023-01-10T13:47:56.917Z,8.95
2023-01-10T13:50:23.794Z,8.94
2023-01-10T13:53:04.216Z,8.91
2023-01-10T13:55:42.273Z,8.95
2023-01-10T13:58:40.787Z,8.90
2023-01-10T14:01:45.712Z,8.88
2023-01-10T14:04:23.025Z,8.78
2023-01-10T14:06:59.966Z,8.74
2023-01-10T14:09:36.809Z,8.63
2023-01-10T14:12:18.123Z,8.60
2023-01-10T14:14:54.367Z,8.56
2023-01-10T14:17:31.109Z,8.51
2023-01-10T14:20:20.733Z,8.41
2023-01-10T14:23:17.094Z,8.37
2023-01-10T14:25:45.086Z,8.32
2023-01-10T14:28:31.435Z,8.35
2023-01-10T14:31:21.492Z,8.35
2023-01-10T14:33:48.944Z,8.27
2023-01-10T14:36:25.510Z,8.24
2023-01-10T14:38:59.614Z,8.26
2023-01-10T14:41:46.013Z,8.30
2023-01-10T14:44:51.529Z,8.28
2023-01-10T14:47:31.617Z,8.25
2023-01-10T14:50:02.017Z,8.25
2023-01-10T14:52:30.388Z,8.22
2023-01-10T14:55:11.911Z,8.20
2023-01-10T14:57:39.236Z,8.20
2023-01-10T15:00:12.038Z,8.23
2023-01-10T15:02:45.371Z,8.22
2023-01-10T15:05:23.522Z,8.20
2023-01-10T15:07:50.406Z,8.19
2023-01-10T15:10:31.333Z,8.14
2023-01-10T15:13:03.419Z,8.17
2023-01-10T15:15:37.852Z,8.13
2023-01-10T15:18:36.761Z,8.10
2023-01-10T15:21:05.348Z,8.06
2023-01-10T15:23:38.009Z,8.09
2023-01-10T15:26:30.442Z,8.06
2023-01-10T15:29:20.807Z,8.04
2023-01-10T15:31:47.941Z,8.03
2023-01-10T15:34:21.949Z,7.98
2023-01-10T15:36:56.055Z,8.00
2023-01-10T15:39:28.473Z,8.00
2023-01-10T15:42:09.723Z,8.03
2023-01-10T15:44:56.012Z,8.00
2023-01-10T15:47:37.747Z,7.97
2023-01-10T15:50:33.106Z,7.94
2023-01-10T15:53:03.905Z,7.94
2023-01-10T15:55:47.658Z,7.88
2023-01-10T15:58:30.784Z,7.82
2023-01-10T16:00:59.409Z,7.80
2023-01-10T16:03:37.236Z,7.81
2023-01-10T16:06:09.667Z,7.78
2023-01-10T16:08:38.598Z,7.78
2023-01-10T16:11:14.880Z,7.77
2023-01-10T16:13:41.788Z,7.76
2023-01-10T16:16:18.322Z,7.75
2023-01-10T16:18:45.205Z,7.71
2023-01-10T16:21:14.272Z,7.73
2023-01-10T16:23:44.191Z,7.71
2023-01-10T16:26:11.125Z,7.72
2023-01-10T16:28:38.131Z,7.71
2023-01-10T16:31:06.979Z,7.66
2023-01-10T16:33:34.339Z,7.68
2023-01-10T16:36:01.449Z,7.64
2023-01-10T16:38:30.065Z,7.64
2023-01-10T16:41:25.465Z,7.67
2023-01-10T16:43:52.929Z,7.67
2023-01-10T16:46:20.038Z,7.72
2023-01-10T16:48:48.705Z,7.76
2023-01-10T16:51:25.973Z,7.77
2023-01-10T16:53:52.982Z,7.82
2023-01-10T16:56:27.008Z,7.93
2023-01-10T16:58:57.549Z,7.91
2023-01-10T17:01:30.718Z,7.85
2023-01-10T17:03:58.055Z,7.83
2023-01-10T17:06:24.971Z,7.83
2023-01-10T17:08:51.881Z,7.81
2023-01-10T17:11:28.110Z,7.80
2023-01-10T17:13:55.054Z,7.80
2023-01-10T17:16:21.922Z,7.79
2023-01-10T17:18:48.906Z,7.82
2023-01-10T17:21:22.683Z,7.77
2023-01-10T17:23:50.154Z,7.77
2023-01-10T17:26:18.858Z,7.76
2023-01-10T17:28:48.336Z,7.72
2023-01-10T17:31:17.056Z,7.73
2023-01-10T17:33:43.928Z,7.77
2023-01-10T17:36:11.730Z,7.87
2023-01-10T17:38:39.332Z,7.80
2023-01-10T17:41:07.319Z,7.80
2023-01-10T17:43:34.207Z,7.81
2023-01-10T17:46:05.718Z,7.82
2023-01-10T17:48:34.606Z,7.81
2023-01-10T17:51:02.876Z,7.84
2023-01-10T17:53:30.105Z,7.82
2023-01-10T17:55:58.397Z,7.80
2023-01-10T17:58:26.362Z,7.73
2023-01-10T18:00:53.277Z,7.72
2023-01-10T18:03:20.225Z,7.78
2023-01-10T18:05:56.383Z,7.71
2023-01-10T18:08:24.702Z,7.66
2023-01-10T18:10:52.045Z,7.67
2023-01-10T18:13:22.923Z,7.68
2023-01-10T18:15:50.139Z,7.71
2023-01-10T18:18:19.121Z,7.73
2023-01-10T18:20:45.999Z,7.69
2023-01-10T18:23:23.396Z,7.73
2023-01-10T18:26:00.055Z,7.72
2023-01-10T18:28:42.341Z,7.72
2023-01-10T18:31:16.149Z,7.67
2023-01-10T18:33:44.366Z,7.70
2023-01-10T18:36:18.024Z,7.70
2023-01-10T18:38:46.021Z,7.72
2023-01-10T18:41:17.459Z,7.71
2023-01-10T18:43:44.631Z,7.80
2023-01-10T18:46:15.835Z,7.83
2023-01-10T18:48:42.737Z,7.88
2023-01-10T18:51:12.550Z,7.87
2023-01-10T18:53:41.213Z,7.91
2023-01-10T18:56:09.124Z,7.91
2023-01-10T18:58:39.247Z,7.91
2023-01-10T19:01:14.247Z,7.94
2023-01-10T19:03:42.207Z,7.91
2023-01-10T19:06:11.728Z,7.87
2023-01-10T19:08:39.409Z,7.87
2023-01-10T19:11:15.839Z,7.88
2023-01-10T19:13:45.319Z,7.80
2023-01-10T19:16:18.982Z,7.83
2023-01-10T19:18:52.845Z,7.80
2023-01-10T19:21:21.613Z,7.84
2023-01-10T19:23:52.319Z,7.79
2023-01-10T19:26:19.475Z,7.81
2023-01-10T19:28:46.898Z,7.77
2023-01-10T19:31:18.906Z,7.79
2023-01-10T19:33:47.516Z,7.75
2023-01-10T19:36:15.439Z,7.68
2023-01-10T19:38:42.292Z,7.69
2023-01-10T19:41:09.758Z,7.66
2023-01-10T19:43:36.750Z,7.61
2023-01-10T19:46:11.878Z,7.65
2023-01-10T19:48:39.668Z,7.62
2023-01-10T19:51:12.065Z,7.60
2023-01-10T19:53:45.395Z,7.62
2023-01-10T19:56:21.959Z,7.65
2023-01-10T19:58:50.022Z,7.62
2023-01-10T20:01:26.461Z,7.64
2023-01-10T20:03:56.711Z,7.69
2023-01-10T20:06:27.820Z,7.71
2023-01-10T20:08:55.090Z,7.75
2023-01-10T20:11:25.652Z,7.76
2023-01-10T20:13:53.031Z,7.72
2023-01-10T20:16:23.138Z,7.75
2023-01-10T20:18:52.222Z,7.73
2023-01-10T20:21:19.835Z,7.72
2023-01-10T20:23:48.105Z,7.76
2023-01-10T20:26:21.631Z,7.71
2023-01-10T20:28:50.454Z,7.75
2023-01-10T20:31:20.781Z,7.68
2023-01-10T20:33:48.106Z,7.71
2023-01-10T20:36:18.956Z,7.75
2023-01-10T20:38:46.143Z,7.75
2023-01-10T20:41:19.456Z,7.73
2023-01-10T20:43:46.700Z,7.72
2023-01-10T20:46:20.726Z,7.75
2023-01-10T20:48:48.436Z,7.73
2023-01-10T20:51:20.472Z,7.70
2023-01-10T20:53:48.587Z,7.73
2023-01-10T20:56:25.852Z,7.72
2023-01-10T20:58:53.818Z,7.70
2023-01-10T21:01:33.743Z,7.68
2023-01-10T21:04:01.823Z,7.69
2023-01-10T21:06:28.877Z,7.69
2023-01-10T21:08:56.257Z,7.68
2023-01-10T21:11:23.283Z,7.66
2023-01-10T21:13:50.330Z,7.72
2023-01-10T21:16:20.752Z,7.73
2023-01-10T21:18:48.641Z,7.77
2023-01-10T21:21:19.066Z,7.75
2023-01-10T21:23:45.949Z,7.76
2023-01-10T21:26:14.824Z,7.74
2023-01-10T21:28:48.019Z,7.76
2023-01-10T21:31:19.136Z,7.73
2023-01-10T21:33:46.114Z,7.69
2023-01-10T21:36:14.053Z,7.67
2023-01-10T21:38:41.469Z,7.63
2023-01-10T21:41:14.762Z,7.64
2023-01-10T21:43:45.991Z,7.60
2023-01-10T21:46:12.945Z,7.57
2023-01-10T21:48:39.990Z,7.54
2023-01-10T21:51:06.870Z,7.46
2023-01-10T21:53:33.749Z,7.45
2023-01-10T21:56:00.599Z,7.42
2023-01-10T21:58:27.607Z,7.38
2023-01-10T22:00:57.203Z,7.34
2023-01-10T22:03:24.245Z,7.34
2023-01-10T22:05:51.195Z,7.34
2023-01-10T22:08:18.032Z,7.31
2023-01-10T22:10:44.811Z,7.31
2023-01-10T22:13:11.661Z,7.37
2023-01-10T22:15:40.985Z,7.29
2023-01-10T22:18:08.736Z,7.33
2023-01-10T22:20:36.025Z,7.24
2023-01-10T22:23:02.836Z,7.23
2023-01-10T22:25:29.721Z,7.26
2023-01-10T22:27:56.604Z,7.20
2023-01-10T22:30:23.487Z,7.25
2023-01-10T22:32:54.987Z,7.29
2023-01-10T22:35:21.866Z,7.25
2023-01-10T22:37:48.728Z,7.29
2023-01-10T22:40:15.789Z,7.29
2023-01-10T22:42:42.746Z,7.29
2023-01-10T22:45:10.189Z,7.34
2023-01-10T22:47:38.426Z,7.39
2023-01-10T22:50:05.963Z,7.36
2023-01-10T22:52:32.802Z,7.37
2023-01-10T22:54:59.686Z,7.35
2023-01-10T22:57:28.777Z,7.42
2023-01-10T22:59:55.726Z,7.44
2023-01-10T23:02:22.659Z,7.48
2023-01-10T23:04:49.563Z,7.49
2023-01-10T23:07:16.342Z,7.53
2023-01-10T23:09:43.157Z,7.56
2023-01-10T23:12:10.064Z,7.52
2023-01-10T23:14:37.063Z,7.55
2023-01-10T23:17:03.891Z,7.57
2023-01-10T23:19:30.839Z,7.59
2023-01-10T23:21:57.746Z,7.57
2023-01-10T23:24:24.632Z,7.54
2023-01-10T23:26:51.602Z,7.54
2023-01-10T23:29:18.539Z,7.55
2023-01-10T23:31:49.584Z,7.57
2023-01-10T23:34:17.237Z,7.57
2023-01-10T23:36:44.111Z,7.58
2023-01-10T23:39:10.976Z,7.60
2023-01-10T23:41:37.942Z,7.62
2023-01-10T23:44:05.000Z,7.58
2023-01-10T23:46:31.878Z,7.62
2023-01-10T23:48:58.775Z,7.60
2023-01-10T23:51:26.202Z,7.63
2023-01-10T23:53:53.156Z,7.64
2023-01-10T23:56:20.207Z,7.68
2023-01-10T23:58:55.165Z,7.68
